Time;durP1;ratioP1;P1;durP2;ratioP2;P2;SDS_P1;SDS_P2;PMS_P1;PMS_P2;Temp;Humidity;BMP_temperature;BMP_pressure;BME280_temperature;BME280_humidity;BME280_pressure;Samples;Min_cycle;Max_cycle;Signal;HPM_P1;HPM_P2
2022/12/14 00:01:17;;;;;;;12.60;7.72;;;-4.40;99.90;;;;;;4878892;29;20036;-68
2022/12/14 00:03:43;;;;;;;13.02;7.65;;;-4.50;99.90;;;;;;4882247;29;20045;-68
2022/12/14 00:06:14;;;;;;;13.38;8.15;;;-4.60;99.90;;;;;;4859247;29;20127;-70
2022/12/14 00:08:40;;;;;;;17.42;9.90;;;-4.70;99.90;;;;;;4891840;29;20055;-69
2022/12/14 00:11:06;;;;;;;17.45;10.48;;;-4.60;99.90;;;;;;4910641;29;20654;-68
2022/12/14 00:13:32;;;;;;;13.27;8.27;;;-4.60;99.90;;;;;;4906851;29;20087;-69
2022/12/14 00:15:57;;;;;;;15.93;9.38;;;-4.40;99.90;;;;;;4908270;29;20095;-69
2022/12/14 00:18:23;;;;;;;15.80;10.15;;;-4.30;99.90;;;;;;4909488;29;20028;-69
2022/12/14 00:20:49;;;;;;;15.32;9.70;;;-4.20;99.90;;;;;;4907445;29;20043;-69
2022/12/14 00:23:14;;;;;;;16.83;10.23;;;-4.10;99.90;;;;;;4906656;29;20517;-70
2022/12/14 00:25:40;;;;;;;16.27;9.63;;;-4.00;99.90;;;;;;4902093;29;20740;-71
2022/12/14 00:28:06;;;;;;;20.00;10.80;;;-3.90;99.90;;;;;;4886508;29;20098;-71
2022/12/14 00:30:32;;;;;;;21.80;12.40;;;-3.70;99.90;;;;;;4899665;29;20106;-72
2022/12/14 00:32:58;;;;;;;21.77;12.63;;;-3.50;99.90;;;;;;4903299;29;20032;-72
2022/12/14 00:35:23;;;;;;;21.50;13.10;;;-3.30;99.90;;;;;;4892523;29;20151;-72
2022/12/14 00:37:49;;;;;;;22.25;12.85;;;-3.10;99.90;;;;;;4911025;29;20039;-72
2022/12/14 00:40:14;;;;;;;21.27;13.57;;;-3.00;99.90;;;;;;4914156;29;20042;-73
2022/12/14 00:42:40;;;;;;;21.55;13.48;;;-2.80;99.90;;;;;;4911230;29;20071;-72
2022/12/14 00:45:07;;;;;;;22.27;14.05;;;-2.70;99.90;;;;;;4912048;29;20047;-73
2022/12/14 00:47:33;;;;;;;21.95;13.85;;;-2.60;99.90;;;;;;4909934;29;20032;-72
2022/12/14 00:49:58;;;;;;;25.58;15.02;;;-2.60;99.90;;;;;;4896431;29;20055;-72
2022/12/14 00:52:24;;;;;;;22.23;14.55;;;-2.50;99.90;;;;;;4904584;29;20091;-69
2022/12/14 00:54:49;;;;;;;24.45;15.20;;;-2.40;99.90;;;;;;4907174;29;20028;-72
2022/12/14 00:57:15;;;;;;;22.58;14.98;;;-2.40;99.90;;;;;;4908948;29;20449;-69
2022/12/14 00:59:41;;;;;;;23.85;15.68;;;-2.40;99.90;;;;;;4912162;29;20036;-70
2022/12/14 01:02:07;;;;;;;26.73;14.45;;;-2.40;99.90;;;;;;4898076;29;20047;-69
2022/12/14 01:04:32;;;;;;;23.90;15.00;;;-2.40;99.90;;;;;;4902617;29;20027;-70
2022/12/14 01:06:58;;;;;;;25.23;14.88;;;-2.30;99.90;;;;;;4915231;29;20055;-69
2022/12/14 01:09:25;;;;;;;23.92;15.77;;;-2.30;99.90;;;;;;4911094;29;20056;-68
2022/12/14 01:11:52;;;;;;;23.75;15.35;;;-2.40;99.90;;;;;;4904900;29;20146;-68
2022/12/14 01:14:19;;;;;;;27.15;15.38;;;-2.30;99.90;;;;;;4900495;29;20024;-68
2022/12/14 01:16:45;;;;;;;23.05;14.45;;;-2.30;99.90;;;;;;4900114;29;20060;-68
2022/12/14 01:19:12;;;;;;;24.27;14.88;;;-2.40;99.90;;;;;;4886643;29;20146;-68
2022/12/14 01:21:38;;;;;;;27.70;16.38;;;-2.50;99.90;;;;;;4909975;29;20039;-70
2022/12/14 01:24:05;;;;;;;29.75;16.65;;;-2.50;99.90;;;;;;4906132;29;20036;-69
2022/12/14 01:26:34;;;;;;;28.15;16.65;;;-2.50;99.90;;;;;;4895428;29;20043;-69
2022/12/14 01:29:00;;;;;;;27.58;15.75;;;-2.50;99.90;;;;;;4899254;29;20686;-69
2022/12/14 01:31:29;;;;;;;28.73;17.27;;;-2.50;99.90;;;;;;4906982;29;20044;-69
2022/12/14 01:33:55;;;;;;;30.55;17.48;;;-2.60;99.90;;;;;;4882127;29;20735;-70
2022/12/14 01:36:23;;;;;;;32.92;18.10;;;-2.60;99.90;;;;;;4897092;29;20864;-68
2022/12/14 01:38:58;;;;;;;28.63;16.58;;;-2.60;99.90;;;;;;4899912;29;20186;-69
2022/12/14 01:41:32;;;;;;;28.90;18.05;;;-2.60;99.90;;;;;;4903726;29;20507;-69
2022/12/14 01:44:02;;;;;;;29.00;17.92;;;-2.60;99.90;;;;;;4903502;29;20032;-67
2022/12/14 01:46:58;;;;;;;33.55;19.20;;;-2.70;99.90;;;;;;4907129;29;20039;-68
2022/12/14 01:49:47;;;;;;;32.95;17.90;;;-2.70;99.90;;;;;;4900260;29;20063;-68
2022/12/14 01:52:29;;;;;;;40.90;21.80;;;-2.60;99.90;;;;;;4912136;29;20486;-67
2022/12/14 01:55:09;;;;;;;28.98;16.90;;;-2.70;99.90;;;;;;4915492;29;20023;-68
2022/12/14 01:57:58;;;;;;;30.65;16.15;;;-2.70;99.90;;;;;;4906042;29;20028;-67
2022/12/14 02:00:23;;;;;;;81.47;41.85;;;-2.60;99.90;;;;;;4909129;29;21027;-67
2022/12/14 02:03:08;;;;;;;166.50;84.53;;;-2.70;99.90;;;;;;4903394;29;20019;-68
2022/12/14 02:05:36;;;;;;;55.88;32.05;;;-2.90;99.90;;;;;;4901337;29;20174;-68
2022/12/14 02:08:03;;;;;;;101.90;56.42;;;-2.90;99.90;;;;;;4896821;29;20051;-68
2022/12/14 02:10:31;;;;;;;154.60;89.80;;;-3.00;99.90;;;;;;4885598;29;20879;-68
2022/12/14 02:13:11;;;;;;;47.40;26.77;;;-3.00;99.90;;;;;;4907486;29;20027;-68
2022/12/14 02:15:37;;;;;;;76.15;41.72;;;-2.90;99.90;;;;;;4908807;29;20119;-68
2022/12/14 02:18:06;;;;;;;51.83;27.92;;;-2.90;99.90;;;;;;4909385;29;20905;-68
2022/12/14 02:20:52;;;;;;;65.35;34.50;;;-2.90;99.90;;;;;;4902537;29;20107;-68
2022/12/14 02:23:33;;;;;;;55.33;30.13;;;-2.90;99.90;;;;;;4910219;29;20032;-68
2022/12/14 02:26:02;;;;;;;;;;;-3.00;99.90;;;;;;4901326;29;20031;-68
2022/12/14 02:29:12;;;;;;;39.50;22.88;;;-3.10;99.90;;;;;;4907390;29;20041;-68
2022/12/14 02:32:20;;;;;;;35.08;17.80;;;-3.10;99.90;;;;;;4898597;29;20182;-68
2022/12/14 02:34:52;;;;;;;39.72;19.70;;;-3.00;99.90;;;;;;4886651;29;20063;-68
2022/12/14 02:37:23;;;;;;;;;;;-3.00;99.90;;;;;;4904877;29;20031;-68
2022/12/14 02:39:52;;;;;;;36.63;17.95;;;-3.00;99.90;;;;;;4901639;29;20624;-68
2022/12/14 02:42:31;;;;;;;31.35;16.90;;;-2.90;99.90;;;;;;4902638;29;20027;-68
2022/12/14 02:45:11;;;;;;;35.55;18.40;;;-2.90;99.90;;;;;;4910688;29;20039;-68
2022/12/14 02:47:43;;;;;;;36.00;19.65;;;-2.80;99.90;;;;;;4911831;29;20094;-68
2022/12/14 02:50:35;;;;;;;;;;;-2.70;99.90;;;;;;4903131;29;20079;-67
2022/12/14 02:53:25;;;;;;;39.38;19.00;;;-2.70;99.90;;;;;;4903976;29;19915;-68
2022/12/14 02:55:53;;;;;;;38.40;19.23;;;-2.70;99.90;;;;;;4913075;29;20091;-73
2022/12/14 02:58:36;;;;;;;38.05;20.20;;;-2.70;99.90;;;;;;4905926;29;20420;-73
2022/12/14 03:01:03;;;;;;;40.47;18.90;;;-2.70;99.90;;;;;;4915574;29;20630;-73
2022/12/14 03:03:28;;;;;;;43.15;20.58;;;-2.70;99.90;;;;;;4910284;29;20039;-73
2022/12/14 03:06:02;;;;;;;41.60;21.38;;;-2.80;99.90;;;;;;4899556;29;20032;-73
2022/12/14 03:08:33;;;;;;;44.55;20.55;;;-2.80;99.90;;;;;;4896928;29;20038;-74
2022/12/14 03:11:05;;;;;;;41.08;20.15;;;-2.80;99.90;;;;;;4907552;29;20129;-73
2022/12/14 03:13:52;;;;;;;43.72;21.65;;;-2.70;99.90;;;;;;4905376;29;20043;-73
2022/12/14 03:16:24;;;;;;;46.83;20.60;;;-2.70;99.90;;;;;;4904561;29;20032;-73
2022/12/14 03:18:59;;;;;;;40.60;18.58;;;-2.70;99.90;;;;;;4899825;29;20027;-73
2022/12/14 03:21:30;;;;;;;44.92;20.73;;;-2.70;99.90;;;;;;4907306;29;20042;-73
2022/12/14 03:23:59;;;;;;;38.80;19.55;;;-2.80;99.90;;;;;;4902294;29;20039;-74
2022/12/14 03:26:38;;;;;;;43.35;20.17;;;-2.70;99.90;;;;;;4903409;29;20434;-73
2022/12/14 03:29:10;;;;;;;46.88;21.10;;;-2.60;99.90;;;;;;4905845;29;20059;-73
2022/12/14 03:31:46;;;;;;;47.30;21.98;;;-2.60;99.90;;;;;;4905371;29;20591;-73
2022/12/14 03:34:14;;;;;;;42.88;19.85;;;-2.70;99.90;;;;;;4905070;29;20054;-73
2022/12/14 03:36:48;;;;;;;39.17;19.50;;;-2.60;99.90;;;;;;4900194;29;20043;-73
2022/12/14 03:39:28;;;;;;;41.15;20.60;;;-2.60;99.90;;;;;;4899155;29;20032;-73
2022/12/14 03:42:06;;;;;;;43.35;20.33;;;-2.70;99.90;;;;;;4912291;29;20150;-73
2022/12/14 03:44:51;;;;;;;37.90;18.38;;;-2.60;99.90;;;;;;4903538;29;20023;-73
2022/12/14 03:47:53;;;;;;;47.40;21.05;;;-2.60;99.90;;;;;;4909363;29;20584;-73
2022/12/14 03:50:24;;;;;;;41.03;20.50;;;-2.60;99.90;;;;;;4904205;29;20039;-73
2022/12/14 03:52:57;;;;;;;43.53;21.13;;;-2.60;99.90;;;;;;4909247;29;20079;-74
2022/12/14 03:55:23;;;;;;;46.70;21.02;;;-2.60;99.90;;;;;;4909961;29;20064;-74
2022/12/14 03:58:07;;;;;;;45.05;21.65;;;-2.50;99.90;;;;;;4910175;29;20111;-73
2022/12/14 04:00:49;;;;;;;47.33;21.08;;;-2.50;99.90;;;;;;4899218;29;20062;-73
2022/12/14 04:03:21;;;;;;;;;;;-2.60;99.90;;;;;;4891066;29;20032;-73
2022/12/14 04:06:22;;;;;;;38.58;18.73;;;-2.60;99.90;;;;;;4899356;29;19990;-73
2022/12/14 04:09:05;;;;;;;40.40;20.23;;;-2.50;99.90;;;;;;4894541;28;20146;-73
2022/12/14 04:20:08;;;;;;;41.80;20.20;;;-2.40;99.90;;;;;;4906266;29;20404;-73
2022/12/14 04:22:38;;;;;;;40.95;20.92;;;-2.40;99.90;;;;;;4916593;29;20103;-73
2022/12/14 04:31:03;;;;;;;39.58;19.63;;;-2.30;99.90;;;;;;4895127;29;21793;-73
2022/12/14 04:33:46;;;;;;;43.10;21.67;;;-2.30;99.90;;;;;;4908030;29;20107;-73
2022/12/14 04:36:17;;;;;;;38.15;19.25;;;-2.20;99.90;;;;;;4914589;29;20032;-73
2022/12/14 04:38:47;;;;;;;44.05;20.42;;;-2.20;99.90;;;;;;4900368;29;20091;-73
2022/12/14 04:41:19;;;;;;;42.67;20.92;;;-2.20;99.90;;;;;;4905320;29;20035;-72
2022/12/14 04:43:45;;;;;;;;;;;-2.30;99.90;;;;;;4895415;29;20055;-73
2022/12/14 04:46:14;;;;;;;37.78;19.75;;;-2.30;99.90;;;;;;4902292;29;20523;-73
2022/12/14 04:48:58;;;;;;;39.70;19.23;;;-2.30;99.90;;;;;;4900693;29;20404;-73
2022/12/14 04:51:38;;;;;;;42.72;20.25;;;-2.30;99.90;;;;;;4900124;29;20047;-73
2022/12/14 04:54:24;;;;;;;38.63;20.33;;;-2.20;99.90;;;;;;4905879;29;20183;-73
2022/12/14 04:57:09;;;;;;;40.50;20.30;;;-2.20;99.90;;;;;;4908825;29;20044;-73
2022/12/14 04:59:36;;;;;;;45.33;21.85;;;-2.20;99.90;;;;;;4895794;29;20036;-72
2022/12/14 05:02:20;;;;;;;41.92;20.55;;;-2.20;99.90;;;;;;4894539;29;20115;-72
2022/12/14 05:05:13;;;;;;;42.08;20.40;;;-2.10;99.90;;;;;;4895048;29;20036;-72
2022/12/14 05:08:16;;;;;;;41.78;20.70;;;-2.10;99.90;;;;;;4895986;29;20071;-72
2022/12/14 05:10:54;;;;;;;42.58;20.70;;;-2.10;99.90;;;;;;4891234;29;20997;-72
2022/12/14 05:13:29;;;;;;;39.60;20.58;;;-2.00;99.90;;;;;;4905022;29;20039;-72
2022/12/14 05:15:56;;;;;;;41.70;20.92;;;-2.00;99.90;;;;;;4906387;29;20032;-71
2022/12/14 05:18:22;;;;;;;41.55;20.85;;;-2.00;99.90;;;;;;4907174;29;20098;-72
2022/12/14 05:20:49;;;;;;;47.88;21.55;;;-2.00;99.90;;;;;;4908152;29;20040;-72
2022/12/14 05:23:15;;;;;;;44.13;20.92;;;-2.00;99.90;;;;;;4911048;29;20020;-72
2022/12/14 05:25:41;;;;;;;45.50;21.45;;;-1.90;99.90;;;;;;4915390;29;20035;-71
2022/12/14 05:28:09;;;;;;;41.80;20.67;;;-1.90;99.90;;;;;;4915213;29;20046;-72
2022/12/14 05:30:35;;;;;;;38.97;19.85;;;-1.90;99.90;;;;;;4906931;29;20015;-72
2022/12/14 05:33:01;;;;;;;39.10;20.73;;;-1.80;99.90;;;;;;4909501;29;20116;-73
2022/12/14 05:35:27;;;;;;;45.00;21.25;;;-1.80;99.90;;;;;;4918685;29;20028;-73
2022/12/14 05:37:52;;;;;;;45.17;21.05;;;-1.80;99.90;;;;;;4888714;29;20090;-72
2022/12/14 05:40:18;;;;;;;40.33;20.95;;;-1.90;99.90;;;;;;4905615;29;20039;-73
2022/12/14 05:42:44;;;;;;;41.65;21.48;;;-1.90;99.90;;;;;;4908410;29;20482;-73
2022/12/14 05:45:12;;;;;;;41.17;20.63;;;-1.90;99.90;;;;;;4911881;29;20493;-73
2022/12/14 05:47:38;;;;;;;39.80;20.23;;;-1.80;99.90;;;;;;4910896;29;20127;-72
2022/12/14 05:50:05;;;;;;;40.63;19.42;;;-1.80;99.90;;;;;;4902731;29;20035;-70
2022/12/14 05:52:30;;;;;;;38.38;20.05;;;-1.80;99.90;;;;;;4916501;29;20046;-71
2022/12/14 05:54:56;;;;;;;40.50;21.20;;;-1.90;99.90;;;;;;4913095;29;20506;-72
2022/12/14 05:57:22;;;;;;;36.30;20.17;;;-1.90;99.90;;;;;;4911079;29;20032;-72
2022/12/14 05:59:48;;;;;;;42.90;21.10;;;-1.80;99.90;;;;;;4907141;29;20028;-72
2022/12/14 06:02:14;;;;;;;36.67;18.95;;;-1.70;99.90;;;;;;4886345;29;20770;-72
2022/12/14 06:04:40;;;;;;;37.42;20.27;;;-1.80;99.90;;;;;;4894254;29;20032;-72
2022/12/14 06:07:08;;;;;;;35.78;19.35;;;-1.90;99.90;;;;;;4900292;29;20044;-71
2022/12/14 06:09:34;;;;;;;38.65;19.20;;;-1.90;99.90;;;;;;4891385;29;20109;-72
2022/12/14 06:11:59;;;;;;;33.53;18.33;;;-1.90;99.90;;;;;;4889487;29;20029;-72
2022/12/14 06:14:25;;;;;;;31.52;17.17;;;-1.90;99.90;;;;;;4871616;29;20028;-71
2022/12/14 06:16:51;;;;;;;34.90;19.45;;;-1.90;99.90;;;;;;4890860;29;20024;-71
2022/12/14 06:19:16;;;;;;;37.13;20.10;;;-1.90;99.90;;;;;;4890112;29;20462;-71
2022/12/14 06:21:43;;;;;;;49.65;32.22;;;-1.90;99.90;;;;;;4890965;29;20539;-72
2022/12/14 06:24:11;;;;;;;31.58;18.08;;;-1.90;99.90;;;;;;4894020;29;20042;-72
2022/12/14 06:26:39;;;;;;;45.38;31.63;;;-1.90;99.90;;;;;;4892107;29;20028;-71
2022/12/14 06:29:05;;;;;;;31.45;17.73;;;-1.80;99.90;;;;;;4889719;29;20595;-71
2022/12/14 06:31:32;;;;;;;29.73;17.92;;;-1.70;99.90;;;;;;4885154;29;20028;-71
2022/12/14 06:34:00;;;;;;;35.50;20.85;;;-1.70;99.90;;;;;;4887529;29;20051;-71
2022/12/14 06:36:32;;;;;;;40.58;22.33;;;-1.70;99.90;;;;;;4893026;29;20032;-70
2022/12/14 06:39:02;;;;;;;61.22;41.35;;;-1.80;99.90;;;;;;4884901;29;20032;-73
2022/12/14 06:41:28;;;;;;;54.47;33.75;;;-1.70;99.90;;;;;;4890213;29;20099;-73
2022/12/14 06:43:53;;;;;;;30.45;17.45;;;-1.70;99.90;;;;;;4894941;29;20564;-72
2022/12/14 06:46:21;;;;;;;30.67;16.75;;;-1.60;99.90;;;;;;4896165;29;20526;-72
2022/12/14 06:48:50;;;;;;;52.35;31.73;;;-1.60;99.90;;;;;;4904761;29;20036;-71
2022/12/14 06:51:16;;;;;;;41.72;27.40;;;-1.60;99.90;;;;;;4899363;29;20123;-71
2022/12/14 06:53:42;;;;;;;35.40;20.88;;;-1.70;99.90;;;;;;4894861;29;20196;-72
2022/12/14 06:56:10;;;;;;;28.58;16.13;;;-1.70;99.90;;;;;;4901784;29;20036;-71
2022/12/14 06:58:36;;;;;;;32.53;21.33;;;-1.70;99.90;;;;;;4904322;29;20067;-71
2022/12/14 07:01:11;;;;;;;27.40;16.85;;;-1.70;99.90;;;;;;4900564;29;20034;-71
2022/12/14 07:03:38;;;;;;;32.10;18.55;;;-1.70;99.90;;;;;;4901690;29;20142;-71
2022/12/14 07:06:05;;;;;;;31.25;17.83;;;-1.70;99.90;;;;;;4899842;29;20032;-72
2022/12/14 07:08:33;;;;;;;28.15;17.20;;;-1.70;99.90;;;;;;4897045;29;20040;-71
2022/12/14 07:11:03;;;;;;;27.33;16.25;;;-1.70;99.90;;;;;;4890365;29;20035;-72
2022/12/14 07:13:29;;;;;;;36.95;21.08;;;-1.60;99.90;;;;;;4901279;29;20087;-72
2022/12/14 07:15:56;;;;;;;35.13;18.48;;;-1.60;99.90;;;;;;4896286;29;20529;-72
2022/12/14 07:18:22;;;;;;;29.27;17.60;;;-1.70;99.90;;;;;;4897134;29;20523;-72
2022/12/14 07:21:08;;;;;;;30.92;17.92;;;-1.70;99.90;;;;;;4898858;29;20124;-72
2022/12/14 07:23:36;;;;;;;39.13;21.83;;;-1.70;99.90;;;;;;4901140;29;20032;-71
2022/12/14 07:26:15;;;;;;;33.95;19.13;;;-1.70;99.90;;;;;;4903397;29;20620;-71
2022/12/14 07:28:42;;;;;;;27.60;16.58;;;-1.70;99.90;;;;;;4909525;29;20036;-72
2022/12/14 07:31:16;;;;;;;32.28;18.58;;;-1.50;99.90;;;;;;4895781;29;20182;-72
2022/12/14 07:33:42;;;;;;;27.98;16.95;;;-1.50;99.90;;;;;;4885376;29;20036;-70
2022/12/14 07:36:10;;;;;;;30.00;16.98;;;-1.50;99.90;;;;;;4899932;29;20388;-69
2022/12/14 07:38:38;;;;;;;33.92;19.48;;;-1.50;99.90;;;;;;4897212;29;20028;-69
2022/12/14 07:41:09;;;;;;;31.13;16.70;;;-1.50;99.90;;;;;;4892475;29;20032;-70
2022/12/14 07:43:36;;;;;;;36.45;21.13;;;-1.50;99.90;;;;;;4883339;29;20146;-69
2022/12/14 07:46:04;;;;;;;52.25;33.70;;;-1.60;99.90;;;;;;4894923;29;20059;-70
2022/12/14 07:48:30;;;;;;;46.33;30.08;;;-1.50;99.90;;;;;;4897495;29;20080;-70
2022/12/14 07:51:10;;;;;;;44.03;27.90;;;-1.40;99.90;;;;;;4900995;29;20043;-69
2022/12/14 07:53:37;;;;;;;31.95;19.85;;;-1.30;99.90;;;;;;4885253;29;20571;-70
2022/12/14 07:56:10;;;;;;;37.58;23.40;;;-1.40;99.90;;;;;;4901496;29;20040;-70
2022/12/14 07:58:36;;;;;;;33.42;19.95;;;-1.30;99.90;;;;;;4903512;29;20025;-70
2022/12/14 08:01:15;;;;;;;26.90;15.88;;;-1.20;99.90;;;;;;4902493;29;20032;-70
2022/12/14 08:03:46;;;;;;;29.17;16.85;;;-1.20;99.90;;;;;;4896482;29;20115;-70
2022/12/14 08:06:13;;;;;;;33.25;17.45;;;-1.30;99.90;;;;;;4897447;29;20032;-70
2022/12/14 08:08:39;;;;;;;23.67;14.05;;;-1.40;99.90;;;;;;4907692;29;20044;-70
2022/12/14 08:11:05;;;;;;;26.05;15.98;;;-1.40;99.90;;;;;;4920828;29;20099;-69
2022/12/14 08:13:31;;;;;;;33.80;19.45;;;-1.30;99.90;;;;;;4919716;29;20135;-69
2022/12/14 08:16:14;;;;;;;24.63;15.35;;;-1.30;99.90;;;;;;4925094;29;20024;-69
2022/12/14 08:18:41;;;;;;;28.45;16.90;;;-1.40;99.90;;;;;;4923733;29;20492;-70
2022/12/14 08:21:09;;;;;;;32.38;18.45;;;-1.40;99.90;;;;;;4924012;29;20027;-70
2022/12/14 08:23:35;;;;;;;29.02;17.13;;;-1.40;99.90;;;;;;4927403;29;20092;-69
2022/12/14 08:26:03;;;;;;;30.20;14.90;;;-1.40;99.90;;;;;;4921641;29;20095;-69
2022/12/14 08:28:30;;;;;;;27.70;16.40;;;-1.40;99.90;;;;;;4919244;29;20047;-69
2022/12/14 08:30:56;;;;;;;27.35;16.40;;;-1.40;99.90;;;;;;4916257;29;20055;-69
2022/12/14 08:33:23;;;;;;;29.25;17.08;;;-1.40;99.90;;;;;;4919862;29;20031;-69
2022/12/14 08:35:49;;;;;;;22.67;13.70;;;-1.40;99.90;;;;;;4920330;29;22157;-70
2022/12/14 08:38:15;;;;;;;22.77;14.80;;;-1.30;99.90;;;;;;4897483;29;20046;-70
2022/12/14 08:40:41;;;;;;;33.00;20.35;;;-1.20;99.90;;;;;;4910579;29;20024;-70
2022/12/14 08:43:08;;;;;;;28.40;16.60;;;-1.30;99.90;;;;;;4904714;29;20035;-69
2022/12/14 08:45:34;;;;;;;25.35;15.88;;;-1.30;99.90;;;;;;4907928;29;20113;-72
2022/12/14 08:48:00;;;;;;;26.67;17.13;;;-1.40;99.90;;;;;;4913949;29;20547;-72
2022/12/14 08:50:28;;;;;;;23.55;14.25;;;-1.40;99.90;;;;;;4912989;29;20034;-72
2022/12/14 08:52:54;;;;;;;24.08;14.82;;;-1.30;99.90;;;;;;4911090;29;20035;-72
2022/12/14 08:55:20;;;;;;;28.55;15.75;;;-1.30;99.90;;;;;;4908231;29;20036;-72
2022/12/14 08:57:46;;;;;;;25.50;15.55;;;-1.40;99.90;;;;;;4919460;29;20027;-72
2022/12/14 09:00:12;;;;;;;27.33;15.80;;;-1.40;99.90;;;;;;4917220;29;20123;-71
2022/12/14 09:02:38;;;;;;;25.98;14.60;;;-1.40;99.90;;;;;;4921314;29;20702;-71
2022/12/14 09:05:05;;;;;;;28.95;15.23;;;-1.40;99.90;;;;;;4911409;29;20028;-72
2022/12/14 09:07:31;;;;;;;25.70;14.38;;;-1.30;99.90;;;;;;4922808;29;20043;-72
2022/12/14 09:09:56;;;;;;;25.63;14.70;;;-1.20;99.90;;;;;;4919292;29;20051;-72
2022/12/14 09:12:22;;;;;;;24.45;14.02;;;-1.20;99.90;;;;;;4911870;29;20039;-71
2022/12/14 09:14:49;;;;;;;25.55;13.85;;;-1.10;99.90;;;;;;4921403;29;20074;-71
2022/12/14 09:17:16;;;;;;;20.73;13.30;;;-1.10;99.90;;;;;;4919699;29;20035;-70
2022/12/14 09:19:42;;;;;;;26.27;14.02;;;-1.00;99.90;;;;;;4915421;29;20507;-71
2022/12/14 09:22:08;;;;;;;24.08;13.73;;;-0.90;99.90;;;;;;4918749;29;20080;-71
2022/12/14 09:24:34;;;;;;;25.38;13.88;;;-0.90;99.90;;;;;;4907692;29;20048;-71
2022/12/14 09:27:01;;;;;;;23.55;13.70;;;-1.10;99.90;;;;;;4914361;29;20039;-71
2022/12/14 09:29:27;;;;;;;23.80;15.35;;;-1.10;99.90;;;;;;4917834;29;20460;-71
2022/12/14 09:31:53;;;;;;;28.27;15.77;;;-1.20;99.90;;;;;;4917056;29;20059;-72
2022/12/14 09:34:20;;;;;;;26.15;14.88;;;-1.20;99.90;;;;;;4911818;29;20028;-70
2022/12/14 09:36:46;;;;;;;26.75;16.17;;;-1.20;99.90;;;;;;4908779;29;20043;-71
2022/12/14 09:39:13;;;;;;;23.30;14.63;;;-1.10;99.90;;;;;;4914311;29;20028;-71
2022/12/14 09:41:39;;;;;;;29.75;15.98;;;-1.00;99.90;;;;;;4907186;29;20042;-71
2022/12/14 09:44:27;;;;;;;24.25;15.30;;;-0.90;99.90;;;;;;4908194;29;20032;-72
2022/12/14 09:47:26;;;;;;;21.23;12.75;;;-1.00;99.90;;;;;;4897950;29;20048;-72
2022/12/14 09:50:00;;;;;;;23.75;13.25;;;-0.90;99.90;;;;;;4904059;29;20115;-72
2022/12/14 09:52:37;;;;;;;22.00;13.70;;;-1.00;99.90;;;;;;4908735;29;20043;-72
2022/12/14 09:55:14;;;;;;;24.50;13.35;;;-1.00;99.90;;;;;;4913664;29;20102;-72
2022/12/14 09:57:41;;;;;;;22.83;13.98;;;-1.10;99.90;;;;;;4914321;29;20028;-71
2022/12/14 10:00:15;;;;;;;24.92;13.45;;;-1.10;99.90;;;;;;4907659;29;20377;-72
2022/12/14 10:02:56;;;;;;;22.08;13.55;;;-1.20;99.90;;;;;;4915587;29;21172;-71
2022/12/14 10:05:49;;;;;;;25.73;14.50;;;-1.10;99.90;;;;;;4920594;29;20035;-71
2022/12/14 10:08:42;;;;;;;24.30;14.63;;;-1.20;99.90;;;;;;4911220;28;20040;-72
2022/12/14 10:11:43;;;;;;;21.13;12.40;;;-1.10;99.90;;;;;;4915569;29;20070;-72
2022/12/14 10:14:36;;;;;;;22.80;13.97;;;-1.00;99.90;;;;;;4914133;29;20445;-72
2022/12/14 10:17:41;;;;;;;23.75;13.65;;;-1.00;99.90;;;;;;4906471;29;20040;-72
2022/12/14 10:20:10;;;;;;;21.83;13.40;;;-0.90;99.90;;;;;;4918941;29;20107;-71
2022/12/14 10:22:42;;;;;;;24.98;15.95;;;-0.90;99.90;;;;;;4911981;29;20066;-72
2022/12/14 10:25:21;;;;;;;22.75;14.63;;;-0.90;99.90;;;;;;4918360;29;20678;-72
2022/12/14 10:28:02;;;;;;;22.73;14.45;;;-0.90;99.90;;;;;;4908245;29;20060;-71
2022/12/14 10:30:28;;;;;;;27.42;14.43;;;-1.00;99.90;;;;;;4920392;29;20039;-72
2022/12/14 10:33:23;;;;;;;24.10;14.25;;;-0.90;99.90;;;;;;4924878;29;20028;-72
2022/12/14 10:35:54;;;;;;;21.73;13.93;;;-0.90;99.90;;;;;;4907566;29;20123;-72
2022/12/14 10:38:53;;;;;;;22.67;14.15;;;-0.80;99.90;;;;;;4918354;29;20031;-72
2022/12/14 10:41:35;;;;;;;24.65;14.73;;;-0.70;99.90;;;;;;4916195;29;20574;-72
2022/12/14 10:44:38;;;;;;;31.35;18.38;;;-0.70;99.90;;;;;;4917342;29;20047;-72
2022/12/14 10:47:30;;;;;;;25.20;16.20;;;-0.70;99.90;;;;;;4921675;29;20524;-72
2022/12/14 10:50:14;;;;;;;24.10;13.98;;;-0.80;99.90;;;;;;4913374;29;20890;-72
2022/12/14 10:52:43;;;;;;;22.75;13.30;;;-0.80;99.90;;;;;;4917618;29;20036;-72
2022/12/14 10:55:19;;;;;;;21.50;13.55;;;-0.70;99.90;;;;;;4918160;29;20055;-72
2022/12/14 10:57:45;;;;;;;29.50;15.82;;;-0.70;99.90;;;;;;4910838;29;20036;-72
2022/12/14 11:00:16;;;;;;;22.42;14.93;;;-0.70;99.90;;;;;;4917150;29;20393;-72
2022/12/14 11:02:48;;;;;;;24.20;15.43;;;-0.70;99.90;;;;;;4916238;29;20100;-72
2022/12/14 11:05:34;;;;;;;;;;;-0.60;99.90;;;;;;4902805;29;20488;-72
2022/12/14 11:08:00;;;;;;;25.40;16.65;;;-0.60;99.90;;;;;;4897761;29;19987;-72
2022/12/14 11:10:28;;;;;;;23.92;17.38;;;-0.60;99.90;;;;;;4923449;29;20052;-72
2022/12/14 11:13:02;;;;;;;23.17;14.50;;;-0.60;99.90;;;;;;4922851;29;20457;-70
2022/12/14 11:15:36;;;;;;;23.90;14.30;;;-0.60;99.90;;;;;;4920335;29;20540;-69
2022/12/14 11:18:18;;;;;;;22.40;13.23;;;-0.50;99.90;;;;;;4926319;29;20043;-69
2022/12/14 11:20:52;;;;;;;23.45;13.95;;;-0.50;99.90;;;;;;4921058;29;20044;-70
2022/12/14 11:23:23;;;;;;;19.67;12.52;;;-0.50;99.90;;;;;;4923181;29;20050;-69
2022/12/14 11:25:53;;;;;;;20.75;13.23;;;-0.50;99.90;;;;;;4922779;29;20584;-70
2022/12/14 11:28:31;;;;;;;24.42;14.35;;;-0.50;99.90;;;;;;4911630;29;22066;-70
2022/12/14 11:31:01;;;;;;;24.10;13.10;;;-0.60;99.90;;;;;;4910717;29;20020;-69
2022/12/14 11:33:42;;;;;;;22.38;14.40;;;-0.50;99.90;;;;;;4909441;29;20086;-71
2022/12/14 11:36:08;;;;;;;33.53;24.17;;;-0.40;99.90;;;;;;4913556;29;20039;-71
2022/12/14 11:38:34;;;;;;;21.42;15.95;;;-0.50;99.90;;;;;;4910855;29;20035;-71
2022/12/14 11:41:02;;;;;;;21.95;14.95;;;-0.50;99.90;;;;;;4907408;29;20031;-71
2022/12/14 11:43:40;;;;;;;23.80;14.55;;;-0.50;99.90;;;;;;4894414;29;20040;-71
2022/12/14 11:46:06;;;;;;;20.27;13.00;;;-0.50;99.90;;;;;;4918694;29;20075;-71
2022/12/14 11:48:37;;;;;;;23.20;12.52;;;-0.40;99.90;;;;;;4919025;29;20262;-73
2022/12/14 11:51:12;;;;;;;19.20;11.70;;;-0.40;99.90;;;;;;4918705;29;20130;-72
2022/12/14 11:53:39;;;;;;;19.80;13.18;;;-0.40;99.90;;;;;;4919888;29;20525;-72
2022/12/14 11:56:12;;;;;;;22.67;13.75;;;-0.40;99.90;;;;;;4921869;29;20042;-72
2022/12/14 11:58:47;;;;;;;20.98;13.73;;;-0.50;99.90;;;;;;4918913;29;20099;-71
2022/12/14 12:01:16;;;;;;;21.98;13.52;;;-0.50;99.90;;;;;;4917880;29;20035;-72
2022/12/14 12:03:45;;;;;;;21.60;14.95;;;-0.40;99.90;;;;;;4924930;29;20036;-72
2022/12/14 12:06:17;;;;;;;20.35;13.43;;;-0.50;99.90;;;;;;4924110;29;20027;-72
2022/12/14 12:08:43;;;;;;;19.20;12.73;;;-0.50;99.90;;;;;;4905961;29;20126;-72
2022/12/14 12:11:17;;;;;;;20.17;12.70;;;-0.40;99.90;;;;;;4913521;29;20060;-71
2022/12/14 12:13:46;;;;;;;19.75;12.02;;;-0.40;99.90;;;;;;4915606;29;20039;-71
2022/12/14 12:16:16;;;;;;;22.08;13.27;;;-0.30;99.90;;;;;;4918659;29;20062;-71
2022/12/14 12:19:05;;;;;;;20.58;12.52;;;-0.30;99.90;;;;;;4906748;29;20114;-71
2022/12/14 12:21:34;;;;;;;20.83;11.85;;;-0.30;99.90;;;;;;4925242;29;20086;-71
2022/12/14 12:24:08;;;;;;;23.50;14.05;;;-0.40;99.90;;;;;;4918004;29;20028;-71
2022/12/14 12:26:38;;;;;;;21.23;13.30;;;-0.40;99.90;;;;;;4908846;29;20041;-73
2022/12/14 12:29:43;;;;;;;62.13;37.03;;;-0.30;99.90;;;;;;4910430;29;20674;-71
2022/12/14 12:32:29;;;;;;;30.30;17.60;;;-0.30;99.90;;;;;;4903309;29;20519;-70
2022/12/14 12:35:13;;;;;;;27.20;17.77;;;-0.20;99.90;;;;;;4920868;29;20031;-70
2022/12/14 12:37:47;;;;;;;22.13;13.32;;;-0.10;99.90;;;;;;4913588;29;20027;-71
2022/12/14 12:40:33;;;;;;;22.92;14.35;;;-0.20;99.90;;;;;;4911001;29;20523;-71
2022/12/14 12:43:40;;;;;;;24.58;15.68;;;-0.10;99.90;;;;;;4906205;29;20028;-71
2022/12/14 12:46:16;;;;;;;20.90;14.15;;;-0.10;99.90;;;;;;4854600;29;20041;-72
2022/12/14 12:49:08;;;;;;;23.48;13.32;;;-0.10;99.90;;;;;;4846734;29;20053;-71
2022/12/14 12:51:43;;;;;;;23.15;13.45;;;-0.10;99.90;;;;;;4900848;29;20412;-71
2022/12/14 12:54:16;;;;;;;21.88;13.07;;;-0.10;99.90;;;;;;4919342;29;20031;-72
2022/12/14 12:56:44;;;;;;;21.30;13.30;;;-0.10;99.90;;;;;;4912712;29;20164;-72
2022/12/14 12:59:29;;;;;;;19.83;13.30;;;0.00;99.90;;;;;;4914615;29;20087;-70
2022/12/14 13:01:59;;;;;;;20.67;13.70;;;0.00;99.90;;;;;;4911118;29;20047;-70
2022/12/14 13:04:31;;;;;;;19.95;13.35;;;-0.10;99.90;;;;;;4912045;29;20127;-71
2022/12/14 13:07:03;;;;;;;22.58;13.25;;;-0.10;99.90;;;;;;4906875;29;20047;-70
2022/12/14 13:09:37;;;;;;;21.42;13.02;;;-0.10;99.90;;;;;;4901064;29;20044;-71